Latest Weather Observations for Warwick

IDQ60901

Issued at 4:35 pm EST Thursday 17 April 2014 (issued every 10 minutes, with the page automatically refreshed every 10 minutes)

About weather observations | Map of Brisbane area stations | Latest observations for Brisbane area | Other Formats
Station Details ID: 041525 Name: WARWICK Lat: -28.21 Lon: 152.10 Height: 475.4 m
Data from the previous 72 hours. | See also: Recent months at Warwick
Date/Time
EST
Tmp

°C
App
Tmp
°C
Dew
Point
°C
Rel
Hum
%
Delta-T

°C
Wind Press
QNH
hPa
Press
MSL
hPa
Rain
since
9 am
mm
Dir
 
Spd
km/h
Gust
km/h
Spd
kts
Gust
kts
17/04:30pm 23.3 21.4 9.1 40 7.8 WSW 9 15 5 8 1015.7 - 0.0
17/04:00pm 24.1 21.2 8.3 36 8.6 WSW 13 20 7 11 1015.4 - 0.0
17/03:30pm 24.1 19.7 8.8 37 8.4 SW 22 30 12 16 1015.4 - 0.0
17/03:00pm 24.8 21.9 8.3 35 9.0 W 13 22 7 12 1015.4 1013.9 0.0
17/02:30pm 24.8 21.3 8.6 35 8.9 SW 17 26 9 14 1015.5 - 0.0
17/02:00pm 24.8 20.7 8.6 35 8.9 SSW 20 28 11 15 1015.8 - 0.0
17/01:30pm 24.1 22.3 9.5 39 8.1 SSW 9 19 5 10 1016.0 - 0.0
17/01:00pm 22.9 21.4 10.4 45 7.0 WSW 9 15 5 8 1016.5 - 0.0
17/12:30pm 23.0 21.3 9.9 43 7.3 W 9 15 5 8 1016.9 - 0.0
17/12:00pm 22.9 21.1 9.3 42 7.5 WNW 9 15 5 8 1017.5 1016.0 0.0
17/11:30am 21.9 21.0 11.5 51 5.9 SW 7 20 4 11 1018.0 - 0.0
17/11:00am 21.3 20.8 12.2 56 5.2 WSW 6 15 3 8 1018.6 - 0.0
17/10:30am 20.1 19.6 12.6 62 4.3 SW 7 13 4 7 1018.8 - 0.0
17/10:00am 19.5 19.0 12.1 62 4.2 SSE 6 13 3 7 1019.1 - 0.0
17/09:30am 18.2 17.7 10.8 62 4.1 E 4 7 2 4 1019.3 - 0.0
17/09:00am 16.1 16.7 11.8 75 2.4 CALM 0 0 0 0 1019.6 1018.1 0.0
17/08:30am 14.2 14.6 11.3 83 1.6 CALM 0 0 0 0 1019.9 - 0.0
17/08:00am 12.3 12.4 10.2 87 1.1 CALM 0 0 0 0 1019.8 - 0.0
17/07:30am 10.9 10.8 9.5 91 0.7 SW 0 0 0 0 1019.4 - 0.0
17/07:00am 9.8 9.5 8.8 93 0.5 CALM 0 0 0 0 1018.9 - 0.0
17/06:30am 9.6 9.0 9.0 96 0.3 NNE 2 7 1 4 1018.7 - 0.0
17/06:00am 8.7 8.3 8.3 97 0.2 ENE 0 0 0 0 1018.4 1017.0 0.0
17/05:30am 8.6 8.1 7.8 95 0.4 CALM 0 0 0 0 1018.2 - 0.0
17/05:00am 8.5 8.0 7.9 96 0.3 CALM 0 0 0 0 1017.9 - 0.0
17/04:30am 9.1 8.7 8.1 93 0.5 CALM 0 0 0 0 1017.8 - 0.0
17/04:00am 10.2 10.0 9.2 93 0.5 CALM 0 0 0 0 1017.6 - 0.0
17/03:30am 9.5 9.2 8.7 95 0.4 CALM 0 0 0 0 1017.5 - 0.0
17/03:00am 12.0 12.2 10.5 90 0.8 CALM 0 0 0 0 1017.4 1015.9 0.0
17/02:30am 11.4 11.5 10.3 93 0.6 ENE 0 0 0 0 1017.5 - 0.0
17/02:00am 12.4 12.6 10.7 89 0.9 CALM 0 0 0 0 1017.5 - 0.0
17/01:30am 12.6 11.8 10.9 89 0.9 NNE 6 9 3 5 1017.7 - 0.0
17/01:00am 12.0 10.9 10.5 90 0.8 NE 7 11 4 6 1017.9 - 0.0
17/12:30am 12.9 12.8 10.8 87 1.1 ENE 2 7 1 4 1018.0 - 0.0
17/12:00am 12.5 12.8 10.8 89 0.9 ESE 0 0 0 0 1017.9 1016.4 0.0
 
Date/Time
EST
Tmp

°C
App
Tmp
°C
Dew
Point
°C
Rel
Hum
%
Delta-T

°C
Wind Press
QNH
hPa
Press
MSL
hPa
Rain
since
9 am
mm
Dir
 
Spd
km/h
Gust
km/h
Spd
kts
Gust
kts
16/11:30pm 13.4 13.7 10.8 84 1.4 CALM 0 0 0 0 1017.8 - 0.0
16/11:00pm 13.4 12.4 10.4 82 1.6 NE 6 7 3 4 1017.8 - 0.0
16/10:30pm 12.8 12.2 10.3 85 1.3 ENE 4 7 2 4 1017.8 - 0.0
16/10:00pm 14.1 14.3 10.6 79 1.9 CALM 0 0 0 0 1017.8 - 0.0
16/09:30pm 14.5 14.8 10.8 78 2.0 CALM 0 6 0 3 1017.7 - 0.0
16/09:00pm 14.7 15.0 11.0 78 2.0 CALM 0 0 0 0 1017.6 1016.1 0.0
16/08:30pm 14.3 14.7 11.2 81 1.7 NE 0 0 0 0 1017.4 - 0.0
16/08:00pm 16.4 16.8 11.3 72 2.8 CALM 0 0 0 0 1017.0 - 0.0
16/07:30pm 16.2 16.7 11.5 73 2.6 CALM 0 0 0 0 1016.8 - 0.0
16/07:00pm 17.6 17.8 11.9 69 3.2 S 2 13 1 7 1016.5 - 0.0
16/06:30pm 18.1 18.3 11.9 67 3.5 W 2 7 1 4 1016.1 - 0.0
16/06:00pm 18.1 18.8 12.3 69 3.3 CALM 0 0 0 0 1015.7 1014.2 0.0
16/05:30pm 19.9 19.4 12.6 63 4.2 S 7 11 4 6 1015.3 - 0.0
16/05:00pm 22.5 21.1 10.8 47 6.6 S 9 17 5 9 1014.9 - 0.0
16/04:30pm 23.7 21.9 9.5 40 7.9 S 9 13 5 7 1014.7 - 0.0
16/04:00pm 24.0 22.1 10.4 42 7.7 SSE 11 17 6 9 1014.5 - 0.0
16/03:30pm 24.2 21.8 9.9 40 8.0 S 13 26 7 14 1014.5 - 0.0
16/03:00pm 24.0 20.2 8.9 38 8.3 SW 19 26 10 14 1014.3 1012.8 0.0
16/02:30pm 24.4 20.7 9.5 38 8.3 SSW 19 32 10 17 1014.2 - 0.0
16/02:00pm 24.9 21.9 9.3 37 8.7 SSW 15 26 8 14 1014.5 - 0.0
16/01:30pm 24.7 20.8 8.7 36 8.8 WSW 19 32 10 17 1014.6 - 0.0
16/01:00pm 22.9 21.2 11.1 47 6.7 S 11 19 6 10 1015.0 - 0.0
16/12:30pm 23.7 22.3 12.2 48 6.7 WSW 11 24 6 13 1015.5 - 0.0
16/12:00pm 22.8 21.6 11.6 49 6.4 W 9 19 5 10 1015.9 1014.4 0.0
16/11:30am 21.6 21.0 11.6 53 5.7 W 6 15 3 8 1016.5 - 0.0
16/11:00am 21.3 19.5 11.0 51 5.8 WSW 11 17 6 9 1017.2 - 0.0
16/10:30am 20.8 20.3 10.8 52 5.6 WNW 4 11 2 6 1017.6 - 0.0
16/10:00am 19.8 20.1 11.0 57 4.9 CALM 0 0 0 0 1017.9 - 0.0
16/09:30am 18.5 19.0 11.7 64 3.8 CALM 0 0 0 0 1018.0 - 0.0
16/09:00am 16.7 17.2 11.5 71 2.9 CALM 0 0 0 0 1018.2 1016.7 0.0
16/08:30am 15.7 16.0 10.9 73 2.6 CALM 0 0 0 0 1018.1 - 0.0
16/08:00am 12.8 12.9 10.1 84 1.4 CALM 0 0 0 0 1018.0 - 0.0
16/07:30am 11.3 11.2 9.6 89 0.9 CALM 0 0 0 0 1017.8 - 0.0
16/07:00am 9.9 8.9 8.7 92 0.6 NE 4 7 2 4 1017.5 - 0.0
16/06:30am 8.8 7.2 8.0 95 0.4 ENE 6 7 3 4 1016.9 - 0.0
16/06:00am 9.2 7.6 8.0 92 0.6 E 6 7 3 4 1016.8 1015.4 0.0
16/05:30am 10.3 8.9 8.9 91 0.7 NNE 6 7 3 4 1016.6 - 0.0
16/05:00am 10.8 9.3 8.6 86 1.1 NNE 6 7 3 4 1016.5 - 0.0
16/04:30am 11.0 9.5 9.2 89 0.9 NE 7 9 4 5 1016.4 - 0.0
16/04:00am 11.0 9.7 10.0 93 0.5 NE 7 11 4 6 1016.3 - 0.0
16/03:30am 10.9 9.6 10.1 95 0.4 NE 7 9 4 5 1016.4 - 0.0
16/03:00am 10.6 9.5 9.8 95 0.4 ENE 6 9 3 5 1016.5 1015.1 0.0
16/02:30am 11.3 11.5 10.5 95 0.4 CALM 0 0 0 0 1016.4 - 0.0
16/02:00am 11.5 11.7 10.4 93 0.6 CALM 0 0 0 0 1016.6 - 0.0
16/01:30am 11.7 11.9 10.6 93 0.6 CALM 0 0 0 0 1016.7 - 0.0
16/01:00am 12.2 12.4 10.7 90 0.8 CALM 0 0 0 0 1017.0 - 0.0
16/12:30am 12.2 12.6 11.1 93 0.6 CALM 0 6 0 3 1017.0 - 0.0
16/12:00am 12.6 13.0 11.1 91 0.8 CALM 0 0 0 0 1017.2 1015.8 0.0
 
Date/Time
EST
Tmp

°C
App
Tmp
°C
Dew
Point
°C
Rel
Hum
%
Delta-T

°C
Wind Press
QNH
hPa
Press
MSL
hPa
Rain
since
9 am
mm
Dir
 
Spd
km/h
Gust
km/h
Spd
kts
Gust
kts
15/11:30pm 13.2 12.9 11.5 89 0.9 ENE 4 9 2 5 1017.4 - 0.0
15/11:00pm 13.4 13.5 11.6 89 1.0 ENE 2 6 1 3 1017.6 - 0.0
15/10:30pm 13.3 12.7 11.8 91 0.8 NE 6 7 3 4 1017.7 - 0.0
15/10:00pm 13.6 13.9 12.1 91 0.8 E 2 6 1 3 1017.9 - 0.0
15/09:30pm 14.2 14.2 12.4 89 1.0 SSE 4 7 2 4 1017.9 - 0.0
15/09:00pm 15.3 14.8 12.8 85 1.4 SSE 7 11 4 6 1017.9 1016.4 0.0
15/08:30pm 15.8 15.0 12.8 82 1.7 SE 9 13 5 7 1017.4 - 0.0
15/08:00pm 16.6 17.2 13.1 80 2.0 ESE 2 7 1 4 1017.2 - 0.0
15/07:30pm 17.7 16.9 13.0 74 2.7 SE 9 15 5 8 1017.0 - 0.0
15/07:00pm 17.7 17.2 12.8 73 2.8 SE 7 13 4 7 1016.8 - 0.0
15/06:30pm 17.5 17.0 12.2 71 3.0 E 6 9 3 5 1016.5 - 0.0
15/06:00pm 18.0 17.7 12.6 70 3.1 ESE 6 9 3 5 1016.2 1014.7 0.0
15/05:30pm 19.1 18.4 12.0 63 4.0 ESE 7 13 4 7 1015.6 - 0.0
15/05:00pm 20.5 18.6 11.7 57 5.0 SE 13 20 7 11 1015.4 - 0.0
15/04:30pm 21.4 19.8 11.6 53 5.6 SE 11 20 6 11 1015.3 - 0.0
15/04:00pm 21.7 19.3 11.5 52 5.8 SE 15 26 8 14 1014.9 - 0.0
15/03:30pm 21.1 19.1 11.6 54 5.4 SE 13 20 7 11 1015.2 - 0.0
15/03:00pm 21.4 18.9 11.1 52 5.8 SE 15 24 8 13 1015.2 1013.7 0.0
15/02:30pm 22.2 19.8 11.3 50 6.2 SE 15 26 8 14 1015.3 - 0.0
15/02:00pm 22.0 19.6 11.5 51 6.0 SE 15 28 8 15 1015.3 - 0.0
15/01:30pm 21.8 19.0 11.4 51 5.9 ESE 17 30 9 16 1015.6 - 0.0
15/01:00pm 21.6 18.7 12.4 55 5.3 SSE 19 32 10 17 1016.0 - 0.0
15/12:30pm 21.0 18.5 12.3 57 5.0 SE 17 32 9 17 1016.5 - 0.0
15/12:00pm 21.8 19.7 12.5 55 5.4 ESE 15 28 8 15 1016.7 1015.3 0.0
15/11:30am 19.8 17.4 12.7 63 4.1 SE 17 26 9 14 1017.1 - 0.0
15/11:00am 20.0 17.5 12.3 61 4.4 ESE 17 26 9 14 1017.7 - 0.0
15/10:30am 19.6 16.9 12.8 65 3.9 ESE 19 32 10 17 1018.2 - 0.0
15/10:00am 18.8 16.0 12.7 67 3.5 SE 19 35 10 19 1018.3 - 0.0
15/09:30am 17.6 14.7 12.9 74 2.7 SE 20 32 11 17 1018.5 - 0.0
15/09:00am 17.8 14.5 12.9 73 2.8 SE 22 35 12 19 1018.4 1017.0 0.0
15/08:30am 16.6 13.8 13.3 81 1.9 SSE 20 32 11 17 1018.3 - 0.0
15/08:00am 16.4 13.8 13.1 81 1.9 SE 19 26 10 14 1018.1 - 0.0
15/07:30am 15.9 14.0 12.9 82 1.7 SSE 15 22 8 12 1017.9 - 0.0
15/07:00am 15.7 14.2 13.2 85 1.4 SSE 13 20 7 11 1017.7 - 0.0
15/06:30am 15.4 13.9 13.1 86 1.3 SSE 13 20 7 11 1017.4 - 0.0
15/06:00am 15.3 13.4 13.0 86 1.3 SSE 15 20 8 11 1017.1 1015.7 0.0
15/05:30am 15.1 14.3 12.8 86 1.3 SE 9 15 5 8 1016.8 - 0.0
15/05:00am 15.6 14.1 13.0 84 1.5 SE 13 22 7 12 1016.4 - 0.0
15/04:30am 15.5 14.4 13.0 85 1.4 SE 11 24 6 13 1016.1 - 0.0
15/04:00am 15.5 14.0 13.0 85 1.4 SE 13 20 7 11 1016.0 - 0.0
15/03:30am 15.7 15.1 13.4 86 1.3 SE 9 19 5 10 1016.1 - 0.0
15/03:00am 15.7 13.9 13.2 85 1.4 SE 15 28 8 15 1015.8 1014.3 0.0
15/02:30am 15.8 14.1 13.5 86 1.3 SE 15 22 8 12 1015.8 - 0.0
15/02:00am 16.1 14.5 13.8 86 1.3 SSE 15 26 8 14 1016.2 - 0.0
15/01:30am 16.1 14.1 13.8 86 1.3 SE 17 26 9 14 1016.2 - 0.0
15/01:00am 16.0 14.5 14.1 88 1.1 SSE 15 24 8 13 1016.3 - 0.0
15/12:30am 15.9 14.9 14.5 91 0.8 SSE 13 20 7 11 1016.5 - 0.0
15/12:00am 15.7 14.0 14.8 94 0.5 SSE 17 28 9 15 1016.6 1015.2 0.0
 
Date/Time
EST
Tmp

°C
App
Tmp
°C
Dew
Point
°C
Rel
Hum
%
Delta-T

°C
Wind Press
QNH
hPa
Press
MSL
hPa
Rain
since
9 am
mm
Dir
 
Spd
km/h
Gust
km/h
Spd
kts
Gust
kts
14/11:30pm 16.3 14.8 14.2 87 1.2 SSE 15 26 8 14 1016.7 - 0.0
14/11:00pm 16.9 14.5 13.8 82 1.8 SSE 19 30 10 16 1016.7 - 0.0
14/10:30pm 17.0 14.9 13.7 81 1.9 SE 17 26 9 14 1016.8 - 0.0
14/10:00pm 16.8 15.1 13.5 81 1.9 SE 15 26 8 14 1016.8 - 0.0
14/09:30pm 16.4 15.0 13.4 82 1.7 SE 13 22 7 12 1016.8 - 0.0
14/09:00pm 16.9 15.3 14.0 83 1.7 SE 15 24 8 13 1017.1 1015.7 0.0
14/08:30pm 16.7 15.6 15.2 91 0.9 SSE 15 26 8 14 1017.0 - 0.0
14/08:00pm 16.7 15.6 15.2 91 0.9 SSE 15 24 8 13 1016.7 - 0.0
14/07:30pm 16.7 14.9 15.5 93 0.7 SSE 19 26 10 14 1016.5 - 0.0
14/07:00pm 17.3 16.2 14.4 83 1.7 SE 13 22 7 12 1016.1 - 0.0
14/06:30pm 17.6 17.0 14.7 83 1.7 SE 11 24 6 13 1015.8 - 0.0
14/06:00pm 17.8 16.7 14.4 80 2.0 SE 13 20 7 11 1015.4 1013.9 0.0
14/05:30pm 17.9 16.4 14.1 78 2.2 SE 15 26 8 14 1015.2 - 0.0
14/05:00pm 18.0 15.6 14.3 79 2.2 SE 20 32 11 17 1014.9 - 0.0

Latest Capital City Observations: Canberra | Sydney | Melbourne | Brisbane | Adelaide | Perth | Hobart | Darwin

Other Formats:

Comma delimited format used in spreadsheet applications
http://www.bom.gov.au/fwo/IDQ60901/IDQ60901.94555.axf

JavaScript Object Notation format (JSON) in row-major order
http://www.bom.gov.au/fwo/IDQ60901/IDQ60901.94555.json